This is the latest recevied weather packets stored in our database for station/object N2RDT. If no packets are shown the sender has not sent any weather packets the latest 1 day(s).
| Time | Temp. | Humidity | Pressure | Rain* | Wind** | Luminosity | Snow |
|---|---|---|---|---|---|---|---|
| 1778103780 | 23.33° C | 76% | 1011.8 hPa | 0 mm | - | 256 W/m² | - |
| 1778102263 | 22.78° C | 78% | 1012.3 hPa | 0 mm | - | 353 W/m² | - |
| 1778101051 | 22.22° C | 81% | 1011.7 hPa | 0 mm | - | 564 W/m² | - |
| 1778097710 | 19.44° C | 88% | 1012.1 hPa | 0 mm | - | 114 W/m² | - |
| 1778097103 | 19.44° C | 88% | 1011.9 hPa | 0 mm | - | 114 W/m² | - |
| 1778096801 | 19.44° C | 88% | 1012.1 hPa | 0 mm | - | 114 W/m² | - |
| 1778096195 | 19.44° C | 88% | 1012.8 hPa | 0.51 mm | - | 114 W/m² | - |
| 1778092860 | 24.44° C | 58% | 1013.7 hPa | 0 mm | - | 187 W/m² | - |
| 1778092252 | 25° C | 57% | 1013.6 hPa | 0 mm | - | 271 W/m² | - |
| 1778091950 | 25° C | 56% | 1013.5 hPa | 0 mm | - | 607 W/m² | - |
| 1778091647 | 25° C | 57% | 1013.8 hPa | 0 mm | - | 537 W/m² | - |
| 1778088617 | 23.33° C | 62% | 1014.6 hPa | 0 mm | - | 491 W/m² | - |
| 1778086800 | 22.22° C | 64% | 1014.6 hPa | 0 mm | - | 435 W/m² | - |
| 1778084978 | 22.78° C | 60% | 1014.7 hPa | 0 mm | - | 467 W/m² | - |
| 1778083466 | 22.22° C | 63% | 1014.9 hPa | 0 mm | - | 385 W/m² | - |
| 1778082861 | 22.22° C | 63% | 1014.9 hPa | 0 mm | - | 341 W/m² | - |
| 1778080835 | 21.11° C | 64% | 1014.6 hPa | 0 mm | - | 232 W/m² | - |
| 1778078411 | 20.56° C | 65% | 1014.7 hPa | 0 mm | - | 340 W/m² | - |
| 1778077504 | 20° C | 68% | 1014.9 hPa | 0 mm | - | 211 W/m² | - |
| 1778077202 | 20° C | 68% | 1015 hPa | 0 mm | - | 208 W/m² | - |
| 1778076598 | 20° C | 68% | 1014.9 hPa | 0 mm | - | 291 W/m² | - |
| 1778075384 | 19.44° C | 70% | 1015.1 hPa | 0 mm | - | 307 W/m² | - |
| 1778074475 | 18.89° C | 72% | 1015.2 hPa | 0 mm | - | 185 W/m² | - |
| 1778071750 | 17.78° C | 77% | 1014.8 hPa | 0 mm | - | 127 W/m² | - |
| 1778071447 | 17.78° C | 77% | 1015 hPa | 0 mm | - | 101 W/m² | - |
* Rain latest hour (hover to see other rain measurements)
** Current wind speed in m/s (hover to see current wind gust speed)